Terminal Aerodrome Forecast
Issued by NWS Houston/Galveston TX

Home | Current Version | Previous Version | Text Only | Print | Product List | Glossary On
Versions: 1 2 3 4 5 6 7 8 9 10 11 12 13 14 15 16 17 18 19 20 21 22 23 24 25 26 27 28 29 30 31 32 33 34 35 36 37 38 39 40 41
000
FTUS44 KHGX 231459 AAA
TAFHOU
TAF AMD
KHOU 231459Z 2315/2412 34007KT P6SM SCT016
      TEMPO 2315/2316 BKN016
     FM231800 36009KT P6SM SCT035
     FM232100 01005KT P6SM VCSH BKN025 BKN050
     FM240100 34006KT 6SM -TSRA OVC025CB
     FM240400 35012KT P6SM SCT050=

USA.gov is the U.S. government's official web portal to all federal, state and local government web resources and services.